createdAt,value
2018-02-10T00:00:29.796Z,44.17
2018-02-10T00:01:29.772Z,43.55
2018-02-10T00:02:29.772Z,42.30
2018-02-10T00:03:29.786Z,41.30
2018-02-10T00:04:29.772Z,45.45
2018-02-10T00:05:29.781Z,44.56
2018-02-10T00:06:29.728Z,43.98
2018-02-10T00:07:29.710Z,45.66
2018-02-10T00:08:29.727Z,45.31
2018-02-10T00:09:29.705Z,45.46
2018-02-10T00:10:29.686Z,43.78
2018-02-10T00:11:29.685Z,43.94
2018-02-10T00:12:29.673Z,46.72
2018-02-10T00:13:29.647Z,45.30
2018-02-10T00:14:29.642Z,43.94
2018-02-10T00:15:29.632Z,44.35
2018-02-10T00:16:29.614Z,43.64
2018-02-10T00:17:29.624Z,43.66
2018-02-10T00:18:29.602Z,44.98
2018-02-10T00:19:29.604Z,46.69
2018-02-10T00:20:29.578Z,46.94
2018-02-10T00:21:29.568Z,45.86
2018-02-10T00:22:29.554Z,44.23
2018-02-10T00:23:29.548Z,44.70
2018-02-10T00:24:29.525Z,45.52
2018-02-10T00:25:29.559Z,41.69
2018-02-10T00:26:29.510Z,42.49
2018-02-10T00:27:29.513Z,45.65
2018-02-10T00:28:29.489Z,48.18
2018-02-10T00:29:29.509Z,46.56
2018-02-10T00:30:29.479Z,42.22
2018-02-10T00:31:29.465Z,42.50
2018-02-10T00:32:29.456Z,42.34
2018-02-10T00:33:29.452Z,43.92
2018-02-10T00:34:29.430Z,42.20
2018-02-10T00:35:29.423Z,39.88
2018-02-10T00:36:29.418Z,46.54
2018-02-10T00:37:29.423Z,41.17
2018-02-10T00:38:29.391Z,43.51
2018-02-10T00:39:29.391Z,45.27
2018-02-10T00:40:29.367Z,43.17
2018-02-10T00:41:29.379Z,41.37
2018-02-10T00:42:29.342Z,44.77
2018-02-10T00:43:29.331Z,42.30
2018-02-10T00:44:29.326Z,43.69
2018-02-10T00:45:29.329Z,43.61
2018-02-10T00:46:29.294Z,44.36
2018-02-10T00:47:29.299Z,42.50
2018-02-10T00:48:29.279Z,43.72
2018-02-10T00:49:29.281Z,43.01
2018-02-10T00:50:29.276Z,45.86
2018-02-10T00:51:29.245Z,42.08
2018-02-10T00:52:29.261Z,42.94
2018-02-10T00:53:29.242Z,42.02
2018-02-10T00:54:29.231Z,45.24
2018-02-10T00:55:29.221Z,44.78
2018-02-10T00:56:29.199Z,42.68
2018-02-10T00:57:29.200Z,43.45
2018-02-10T00:58:29.208Z,43.96
2018-02-10T00:59:29.186Z,43.06
2018-02-10T01:00:29.169Z,43.39
2018-02-10T01:01:29.153Z,43.13
2018-02-10T01:02:29.174Z,45.40
2018-02-10T01:03:29.124Z,44.44
2018-02-10T01:04:29.104Z,41.73
2018-02-10T01:05:29.125Z,41.92
2018-02-10T01:06:29.103Z,41.22
2018-02-10T01:07:29.093Z,42.10
2018-02-10T01:08:29.067Z,42.10
2018-02-10T01:09:29.092Z,45.88
2018-02-10T01:10:29.065Z,40.70
2018-02-10T01:11:29.047Z,42.98
2018-02-10T01:12:29.029Z,47.44
2018-02-10T01:13:29.011Z,44.52
2018-02-10T01:14:29.010Z,44.69
2018-02-10T01:15:28.994Z,41.53
2018-02-10T01:16:28.983Z,42.59
2018-02-10T01:17:28.997Z,41.31
2018-02-10T01:18:29.001Z,44.29
2018-02-10T01:19:28.954Z,48.54
2018-02-10T01:20:28.956Z,44.66
2018-02-10T01:21:28.947Z,44.33
2018-02-10T01:22:28.942Z,50.15
2018-02-10T01:23:28.916Z,47.70
2018-02-10T01:24:28.902Z,45.12
2018-02-10T01:25:28.892Z,47.10
2018-02-10T01:26:28.905Z,46.21
2018-02-10T01:27:28.902Z,46.68
2018-02-10T01:28:28.898Z,46.96
2018-02-10T01:29:28.864Z,47.90
2018-02-10T01:30:28.858Z,45.28
2018-02-10T01:31:28.837Z,49.46
2018-02-10T01:32:28.820Z,48.28
2018-02-10T01:33:28.821Z,47.65
2018-02-10T01:34:28.831Z,49.17
2018-02-10T01:35:28.801Z,46.46
2018-02-10T01:36:28.779Z,45.18
2018-02-10T01:37:28.770Z,46.46
2018-02-10T01:38:28.772Z,50.13
2018-02-10T01:39:28.754Z,47.72
2018-02-10T01:40:28.745Z,46.64
2018-02-10T01:41:28.723Z,47.50
2018-02-10T01:42:28.734Z,49.38
2018-02-10T01:43:28.731Z,47.04
2018-02-10T01:44:28.694Z,50.70
2018-02-10T01:45:28.697Z,48.44
2018-02-10T01:46:28.688Z,48.43
2018-02-10T01:47:28.665Z,49.11
2018-02-10T01:48:28.651Z,49.34
2018-02-10T01:49:28.644Z,50.05
2018-02-10T01:50:28.642Z,52.21
2018-02-10T01:51:28.625Z,51.39
2018-02-10T01:52:28.653Z,52.64
2018-02-10T01:53:28.594Z,52.91
2018-02-10T01:54:28.611Z,50.12
2018-02-10T01:55:28.592Z,50.61
2018-02-10T01:56:28.587Z,51.60
2018-02-10T01:57:28.661Z,51.99
2018-02-10T01:58:28.596Z,50.53
2018-02-10T01:59:28.558Z,52.79
2018-02-10T02:00:28.521Z,51.95
2018-02-10T02:01:28.532Z,50.23
2018-02-10T02:02:28.513Z,55.58
2018-02-10T02:03:28.511Z,49.02
2018-02-10T02:04:28.507Z,48.63
2018-02-10T02:05:28.472Z,51.61
2018-02-10T02:06:28.503Z,54.16
2018-02-10T02:07:28.451Z,53.25
2018-02-10T02:08:28.451Z,53.58
2018-02-10T02:09:28.449Z,55.09
2018-02-10T02:10:28.426Z,52.26
2018-02-10T02:11:28.412Z,50.25
2018-02-10T02:12:28.411Z,51.60
2018-02-10T02:13:28.411Z,52.11
2018-02-10T02:14:28.383Z,55.68
2018-02-10T02:15:28.397Z,54.58
2018-02-10T02:16:28.372Z,60.59
2018-02-10T02:17:28.343Z,54.61
2018-02-10T02:18:28.324Z,53.60
2018-02-10T02:19:28.382Z,56.50
2018-02-10T02:20:28.337Z,56.44
2018-02-10T02:21:28.304Z,58.29
2018-02-10T02:22:28.290Z,55.32
2018-02-10T02:23:28.325Z,56.29
2018-02-10T02:24:28.276Z,53.29
2018-02-10T02:25:28.282Z,52.58
2018-02-10T02:26:28.267Z,55.18
2018-02-10T02:27:28.253Z,56.30
2018-02-10T02:28:28.235Z,56.67
2018-02-10T02:29:28.214Z,55.43
2018-02-10T02:30:28.244Z,58.46
2018-02-10T02:31:28.193Z,56.51
2018-02-10T02:32:28.206Z,56.70
2018-02-10T02:33:28.178Z,53.00
2018-02-10T02:34:28.180Z,56.47
2018-02-10T02:35:28.195Z,55.24
2018-02-10T02:36:29.742Z,56.52
2018-02-10T02:37:28.129Z,56.00
2018-02-10T02:38:28.142Z,54.55
2018-02-10T02:39:28.109Z,54.97
2018-02-10T02:40:28.105Z,55.83
2018-02-10T02:41:28.085Z,56.50
2018-02-10T02:42:28.082Z,54.82
2018-02-10T02:43:28.099Z,53.13
2018-02-10T02:44:28.060Z,55.76
2018-02-10T02:45:28.079Z,60.18
2018-02-10T02:46:28.030Z,57.58
2018-02-10T02:47:28.031Z,55.80
2018-02-10T02:48:28.025Z,55.38
2018-02-10T02:49:28.000Z,53.69
2018-02-10T02:50:27.991Z,57.45
2018-02-10T02:51:28.012Z,54.63
2018-02-10T02:52:27.998Z,57.31
2018-02-10T02:53:28.005Z,56.04
2018-02-10T02:54:27.982Z,59.11
2018-02-10T02:55:27.951Z,54.64
2018-02-10T02:56:27.948Z,55.16
2018-02-10T02:57:27.946Z,58.02
2018-02-10T02:58:27.911Z,56.92
2018-02-10T02:59:27.905Z,53.39
2018-02-10T03:00:27.916Z,55.38
2018-02-10T03:01:27.915Z,56.10
2018-02-10T03:02:27.860Z,55.34
2018-02-10T03:03:27.865Z,54.50
2018-02-10T03:04:27.839Z,57.40
2018-02-10T03:05:27.871Z,56.86
2018-02-10T03:06:27.854Z,52.89
2018-02-10T03:07:27.846Z,55.61
2018-02-10T03:08:27.859Z,55.98
2018-02-10T03:09:27.789Z,55.62
2018-02-10T03:10:27.791Z,54.13
2018-02-10T03:11:27.772Z,58.07
2018-02-10T03:12:27.770Z,56.91
2018-02-10T03:13:27.810Z,55.76
2018-02-10T03:14:27.734Z,55.19
2018-02-10T03:15:27.758Z,54.43
2018-02-10T03:16:27.744Z,57.26
2018-02-10T03:17:27.724Z,61.80
2018-02-10T03:18:27.729Z,63.41
2018-02-10T03:19:27.687Z,62.36
2018-02-10T03:20:27.710Z,56.57
2018-02-10T03:21:27.685Z,58.13
2018-02-10T03:22:27.662Z,57.03
2018-02-10T03:23:27.680Z,59.12
2018-02-10T03:24:27.645Z,53.55
2018-02-10T03:25:27.642Z,55.02
2018-02-10T03:26:27.622Z,56.78
2018-02-10T03:27:27.609Z,55.32
2018-02-10T03:28:27.594Z,55.18
2018-02-10T03:29:27.633Z,52.58
2018-02-10T03:30:27.601Z,52.71
2018-02-10T03:31:27.567Z,54.71
2018-02-10T03:32:27.559Z,51.87
2018-02-10T03:33:27.535Z,50.87
2018-02-10T03:34:27.531Z,52.74
2018-02-10T03:35:27.512Z,50.44
2018-02-10T03:36:27.519Z,51.83
2018-02-10T03:37:27.502Z,53.11
2018-02-10T03:38:27.567Z,53.54
2018-02-10T03:39:27.473Z,51.46
2018-02-10T03:40:27.468Z,55.44
2018-02-10T03:41:27.445Z,56.04
2018-02-10T03:42:27.477Z,51.91
2018-02-10T03:43:27.429Z,54.39
2018-02-10T03:44:27.422Z,55.92
2018-02-10T03:45:27.408Z,54.41
2018-02-10T03:46:27.389Z,52.55
2018-02-10T03:47:27.396Z,56.16
2018-02-10T03:48:27.384Z,54.67
2018-02-10T03:49:27.361Z,55.62
2018-02-10T03:50:27.364Z,55.62
2018-02-10T03:51:27.358Z,54.96
2018-02-10T03:52:27.330Z,56.47
2018-02-10T03:53:27.325Z,61.04
2018-02-10T03:54:27.339Z,56.04
2018-02-10T03:55:27.326Z,53.22
2018-02-10T03:56:27.293Z,53.40
2018-02-10T03:57:27.277Z,56.89
2018-02-10T03:58:27.267Z,55.07
2018-02-10T03:59:27.255Z,58.90
2018-02-10T04:00:27.263Z,54.76
2018-02-10T04:01:27.240Z,53.52
2018-02-10T04:02:27.230Z,51.02
2018-02-10T04:03:27.241Z,53.20
2018-02-10T04:04:27.238Z,54.34
2018-02-10T04:05:27.191Z,51.28
2018-02-10T04:06:27.207Z,52.29
2018-02-10T04:07:27.209Z,52.00
2018-02-10T04:08:27.181Z,52.89
2018-02-10T04:09:27.145Z,53.61
2018-02-10T04:10:27.145Z,54.98
2018-02-10T04:11:27.136Z,52.72
2018-02-10T04:12:27.137Z,53.30
2018-02-10T04:13:27.141Z,54.44
2018-02-10T04:14:27.114Z,53.21
2018-02-10T04:15:27.109Z,56.56
2018-02-10T04:16:27.091Z,51.94
2018-02-10T04:17:27.070Z,53.59
2018-02-10T04:18:27.066Z,52.32
2018-02-10T04:19:27.077Z,53.18
2018-02-10T04:20:27.054Z,54.44
2018-02-10T04:21:27.067Z,55.10
2018-02-10T04:22:27.067Z,53.54
2018-02-10T04:23:27.023Z,51.64
2018-02-10T04:24:27.013Z,49.66
2018-02-10T04:25:27.014Z,54.10
2018-02-10T04:26:27.000Z,53.25
2018-02-10T04:27:26.983Z,55.78
2018-02-10T04:28:26.999Z,54.22
2018-02-10T04:29:26.982Z,54.03
2018-02-10T04:30:26.951Z,53.72
2018-02-10T04:31:26.958Z,52.31
2018-02-10T04:32:26.905Z,53.53
2018-02-10T04:33:26.964Z,53.77
2018-02-10T04:34:26.915Z,52.28
2018-02-10T04:35:26.922Z,50.15
2018-02-10T04:36:26.890Z,58.88
2018-02-10T04:37:26.882Z,55.26
2018-02-10T04:38:26.838Z,53.32
2018-02-10T04:39:26.831Z,52.14
2018-02-10T04:40:26.828Z,52.00
2018-02-10T04:41:26.802Z,56.46
2018-02-10T04:42:26.791Z,57.80
2018-02-10T04:43:26.796Z,54.10
2018-02-10T04:44:26.820Z,53.95
2018-02-10T04:45:26.756Z,53.32
2018-02-10T04:46:26.756Z,50.05
2018-02-10T04:47:26.759Z,52.23
2018-02-10T04:48:26.738Z,51.54
2018-02-10T04:49:26.718Z,57.69
2018-02-10T04:50:26.711Z,53.85
2018-02-10T04:51:26.716Z,55.73
2018-02-10T04:52:26.690Z,53.42
2018-02-10T04:53:26.695Z,56.17
2018-02-10T04:54:26.663Z,53.98
2018-02-10T04:55:26.659Z,57.31
2018-02-10T04:56:26.644Z,53.54
2018-02-10T04:57:26.663Z,54.94
2018-02-10T04:58:26.635Z,54.93
2018-02-10T04:59:26.650Z,56.51
2018-02-10T05:00:26.634Z,54.72
2018-02-10T05:01:26.648Z,55.16
2018-02-10T05:02:26.594Z,56.35
2018-02-10T05:03:26.596Z,56.71
2018-02-10T05:04:26.574Z,58.24
2018-02-10T05:05:26.573Z,57.82
2018-02-10T05:06:26.536Z,62.36
2018-02-10T05:07:26.540Z,59.60
2018-02-10T05:08:26.514Z,61.49
2018-02-10T05:09:26.557Z,63.24
2018-02-10T05:10:26.520Z,65.97
2018-02-10T05:11:26.524Z,66.87
2018-02-10T05:12:26.531Z,63.24
2018-02-10T05:13:26.485Z,65.96
2018-02-10T05:14:26.452Z,67.60
2018-02-10T05:15:26.443Z,69.18
2018-02-10T05:16:26.479Z,65.34
2018-02-10T05:17:26.435Z,67.47
2018-02-10T05:18:26.425Z,67.74
2018-02-10T05:19:26.396Z,68.90
2018-02-10T05:20:26.441Z,70.82
2018-02-10T05:21:26.382Z,71.64
2018-02-10T05:22:26.388Z,73.48
2018-02-10T05:23:26.354Z,69.74
2018-02-10T05:24:26.338Z,68.34
2018-02-10T05:25:26.335Z,68.27
2018-02-10T05:26:26.332Z,69.41
2018-02-10T05:27:26.333Z,71.57
2018-02-10T05:28:26.318Z,70.75
2018-02-10T05:29:26.291Z,70.34
2018-02-10T05:30:26.272Z,71.68
2018-02-10T05:31:26.266Z,74.48
2018-02-10T05:32:26.271Z,69.71
2018-02-10T05:33:26.268Z,71.40
2018-02-10T05:34:26.259Z,74.68
2018-02-10T05:35:26.255Z,72.43
2018-02-10T05:36:26.208Z,67.44
2018-02-10T05:37:26.213Z,66.15
2018-02-10T05:38:26.211Z,65.42
2018-02-10T05:39:26.193Z,64.55
2018-02-10T05:40:26.186Z,65.77
2018-02-10T05:41:26.182Z,66.14
2018-02-10T05:42:26.155Z,65.51
2018-02-10T05:43:26.138Z,59.80
2018-02-10T05:44:26.182Z,63.21
2018-02-10T05:45:26.149Z,62.80
2018-02-10T05:46:26.109Z,62.48
2018-02-10T05:47:26.103Z,63.30
2018-02-10T05:48:26.082Z,64.91
2018-02-10T05:49:26.077Z,63.10
2018-02-10T05:50:26.064Z,63.92
2018-02-10T05:51:26.078Z,62.71
2018-02-10T05:52:26.052Z,63.78
2018-02-10T05:53:26.038Z,58.74
2018-02-10T05:54:26.026Z,57.97
2018-02-10T05:55:26.027Z,60.72
2018-02-10T05:56:26.000Z,62.75
2018-02-10T05:57:25.989Z,63.89
2018-02-10T05:58:25.988Z,60.12
2018-02-10T05:59:25.965Z,59.15
2018-02-10T06:00:25.951Z,58.07
2018-02-10T06:01:25.939Z,59.70
2018-02-10T06:02:25.952Z,61.29
2018-02-10T06:03:25.933Z,59.30
2018-02-10T06:04:25.908Z,60.68
2018-02-10T06:05:25.912Z,57.21
2018-02-10T06:06:25.896Z,59.96
2018-02-10T06:07:25.889Z,58.41
2018-02-10T06:08:25.892Z,60.04
2018-02-10T06:09:25.886Z,59.93
2018-02-10T06:10:25.845Z,56.66
2018-02-10T06:11:25.841Z,55.18
2018-02-10T06:12:25.822Z,57.08
2018-02-10T06:13:25.814Z,58.70
2018-02-10T06:14:25.816Z,58.33
2018-02-10T06:15:25.799Z,59.73
2018-02-10T06:16:25.799Z,57.36
2018-02-10T06:17:25.804Z,58.18
2018-02-10T06:18:25.767Z,54.95
2018-02-10T06:19:25.756Z,56.98
2018-02-10T06:20:25.752Z,57.08
2018-02-10T06:21:25.727Z,58.05
2018-02-10T06:22:25.735Z,56.94
2018-02-10T06:23:25.716Z,54.13
2018-02-10T06:24:25.701Z,54.45
2018-02-10T06:25:25.693Z,54.52
2018-02-10T06:26:25.713Z,55.10
2018-02-10T06:27:25.672Z,57.08
2018-02-10T06:28:25.678Z,53.71
2018-02-10T06:29:25.646Z,56.97
2018-02-10T06:30:25.636Z,56.93
2018-02-10T06:31:25.694Z,63.09
2018-02-10T06:32:25.615Z,60.00
2018-02-10T06:33:25.620Z,62.22
2018-02-10T06:34:25.624Z,63.88
2018-02-10T06:35:25.588Z,65.53
2018-02-10T06:36:25.598Z,63.30
2018-02-10T06:37:25.556Z,58.62
2018-02-10T06:38:25.545Z,60.14
2018-02-10T06:39:25.552Z,58.75
2018-02-10T06:40:25.548Z,56.05
2018-02-10T06:40:37.546Z,2.32
2018-02-10T06:42:25.503Z,55.75
2018-02-10T06:43:25.506Z,56.38
2018-02-10T06:44:25.504Z,58.24
2018-02-10T06:45:25.488Z,57.92
2018-02-10T06:46:25.464Z,54.65
2018-02-10T06:47:25.464Z,55.56
2018-02-10T06:48:25.482Z,55.63
2018-02-10T06:49:25.458Z,55.03
2018-02-10T06:50:25.433Z,55.12
2018-02-10T06:51:25.414Z,53.39
2018-02-10T06:52:25.415Z,52.16
2018-02-10T06:53:25.389Z,54.94
2018-02-10T06:54:25.405Z,54.22
2018-02-10T06:55:25.378Z,54.46
2018-02-10T06:56:25.376Z,56.35
2018-02-10T06:57:25.357Z,52.48
2018-02-10T06:58:25.352Z,53.67
2018-02-10T06:59:25.342Z,54.36
2018-02-10T07:00:25.323Z,55.28
2018-02-10T07:01:25.332Z,52.30
2018-02-10T07:02:25.297Z,52.06
2018-02-10T07:03:25.284Z,56.14
2018-02-10T07:04:25.293Z,54.14
2018-02-10T07:05:25.290Z,54.35
2018-02-10T07:06:25.254Z,54.32
2018-02-10T07:07:25.261Z,55.22
2018-02-10T07:08:25.245Z,54.63
2018-02-10T07:09:25.226Z,56.73
2018-02-10T07:10:25.214Z,56.30
2018-02-10T07:11:25.214Z,55.71
2018-02-10T07:12:25.189Z,52.82
2018-02-10T07:13:25.187Z,51.24
2018-02-10T07:14:25.169Z,53.16
2018-02-10T07:15:25.164Z,53.69
2018-02-10T07:16:25.154Z,53.17
2018-02-10T07:17:25.178Z,51.59
2018-02-10T07:18:25.132Z,50.10
2018-02-10T07:19:25.181Z,54.24
2018-02-10T07:20:25.119Z,53.29
2018-02-10T07:21:25.102Z,51.54
2018-02-10T07:22:25.090Z,51.76
2018-02-10T07:23:25.084Z,54.48
2018-02-10T07:24:25.081Z,52.84
2018-02-10T07:24:37.058Z,2.13
2018-02-10T07:26:25.068Z,52.72
2018-02-10T07:27:25.038Z,52.88
2018-02-10T07:28:25.036Z,52.16
2018-02-10T07:29:25.031Z,50.95
2018-02-10T07:30:25.008Z,52.33
2018-02-10T07:31:25.025Z,51.23
2018-02-10T07:32:24.997Z,53.18
2018-02-10T07:33:24.972Z,53.01
2018-02-10T07:34:25.003Z,57.02
2018-02-10T07:35:24.949Z,52.60
2018-02-10T07:36:24.970Z,54.20
2018-02-10T07:37:24.948Z,53.40
2018-02-10T07:38:24.969Z,50.51
2018-02-10T07:39:24.908Z,51.36
2018-02-10T07:40:24.909Z,53.67
2018-02-10T07:41:24.896Z,53.36
2018-02-10T07:42:24.876Z,50.65
2018-02-10T07:43:24.885Z,50.50
2018-02-10T07:44:25.963Z,53.88
2018-02-10T07:45:25.013Z,48.96
2018-02-10T07:46:25.900Z,49.59
2018-02-10T07:47:24.918Z,50.60
2018-02-10T07:48:24.832Z,49.95
2018-02-10T07:49:24.821Z,48.90
2018-02-10T07:50:24.894Z,47.87
2018-02-10T07:51:24.800Z,47.45
2018-02-10T07:52:26.170Z,45.80
2018-02-10T07:53:25.370Z,43.58
2018-02-10T07:54:26.089Z,43.63
2018-02-10T07:55:24.790Z,45.51
2018-02-10T07:56:24.959Z,46.22
2018-02-10T07:57:24.731Z,43.61
2018-02-10T07:58:24.742Z,44.37
2018-02-10T07:59:24.707Z,41.09
2018-02-10T08:00:24.721Z,43.71
2018-02-10T08:01:24.700Z,43.57
2018-02-10T08:02:24.678Z,42.94
2018-02-10T08:03:24.684Z,44.35
2018-02-10T08:04:24.655Z,43.89
2018-02-10T08:05:24.655Z,42.19
2018-02-10T08:06:24.666Z,43.00
2018-02-10T08:07:24.652Z,45.00
2018-02-10T08:08:24.633Z,43.28
2018-02-10T08:09:24.641Z,40.83
2018-02-10T08:10:24.595Z,42.28
2018-02-10T08:11:24.631Z,43.41
2018-02-10T08:12:24.601Z,50.84
2018-02-10T08:13:24.564Z,50.93
2018-02-10T08:14:24.561Z,43.99
2018-02-10T08:15:24.553Z,47.69
2018-02-10T08:16:24.560Z,44.02
2018-02-10T08:17:24.533Z,42.37
2018-02-10T08:18:24.546Z,43.00
2018-02-10T08:19:24.540Z,40.25
2018-02-10T08:20:24.555Z,40.13
2018-02-10T08:21:24.526Z,40.12
2018-02-10T08:22:24.490Z,41.08
2018-02-10T08:23:24.482Z,41.17
2018-02-10T08:24:24.455Z,45.01
2018-02-10T08:25:24.485Z,43.00
2018-02-10T08:26:24.443Z,38.41
2018-02-10T08:27:24.437Z,36.66
2018-02-10T08:28:24.444Z,38.50
2018-02-10T08:29:24.425Z,41.42
2018-02-10T08:30:24.544Z,45.60
2018-02-10T08:31:24.385Z,45.71
2018-02-10T08:32:24.395Z,42.16
2018-02-10T08:33:24.366Z,41.26
2018-02-10T08:34:24.400Z,40.11
2018-02-10T08:35:24.349Z,41.06
2018-02-10T08:36:24.352Z,41.55
2018-02-10T08:37:24.331Z,39.25
2018-02-10T08:38:24.318Z,36.42
2018-02-10T08:39:24.322Z,36.29
2018-02-10T08:40:24.330Z,36.56
2018-02-10T08:41:24.301Z,38.56
2018-02-10T08:42:24.286Z,41.05
2018-02-10T08:43:24.320Z,41.85
2018-02-10T08:44:24.292Z,41.62
2018-02-10T08:45:24.318Z,42.85
2018-02-10T08:46:24.268Z,36.71
2018-02-10T08:47:24.230Z,38.53
2018-02-10T08:48:24.282Z,37.40
2018-02-10T08:49:24.298Z,40.45
2018-02-10T08:50:24.196Z,38.75
2018-02-10T08:51:24.205Z,39.72
2018-02-10T08:52:24.184Z,38.73
2018-02-10T08:53:24.169Z,40.50
2018-02-10T08:54:24.194Z,37.55
2018-02-10T08:55:24.145Z,33.41
2018-02-10T08:56:24.166Z,35.35
2018-02-10T08:57:24.135Z,39.14
2018-02-10T08:58:24.127Z,37.89
2018-02-10T08:59:24.114Z,35.89
2018-02-10T09:00:24.097Z,36.74
2018-02-10T09:01:24.107Z,37.24
2018-02-10T09:02:24.078Z,40.44
2018-02-10T09:03:24.072Z,41.90
2018-02-10T09:04:24.065Z,38.14
2018-02-10T09:05:24.064Z,40.65
2018-02-10T09:06:24.040Z,38.99
2018-02-10T09:07:24.043Z,37.18
2018-02-10T09:08:24.052Z,38.15
2018-02-10T09:09:24.019Z,37.73
2018-02-10T09:10:24.012Z,37.19
2018-02-10T09:11:24.014Z,36.76
2018-02-10T09:12:24.000Z,36.38
2018-02-10T09:13:23.985Z,38.22
2018-02-10T09:14:24.059Z,36.23
2018-02-10T09:15:23.959Z,36.34
2018-02-10T09:16:23.967Z,35.97
2018-02-10T09:17:23.957Z,35.72
2018-02-10T09:18:24.052Z,33.64
2018-02-10T09:19:23.936Z,35.96
2018-02-10T09:20:23.990Z,33.95
2018-02-10T09:21:24.031Z,34.09
2018-02-10T09:22:23.888Z,36.22
2018-02-10T09:23:23.896Z,34.21
2018-02-10T09:24:23.893Z,36.68
2018-02-10T09:25:23.865Z,37.68
2018-02-10T09:26:23.865Z,33.90
2018-02-10T09:27:23.872Z,34.40
2018-02-10T09:28:23.855Z,35.81
2018-02-10T09:29:23.861Z,36.92
2018-02-10T09:30:23.838Z,32.72
2018-02-10T09:31:23.825Z,34.19
2018-02-10T09:32:23.802Z,32.35
2018-02-10T09:33:23.807Z,34.33
2018-02-10T09:34:23.799Z,34.77
2018-02-10T09:35:23.798Z,35.13
2018-02-10T09:36:23.796Z,33.50
2018-02-10T09:37:23.772Z,33.35
2018-02-10T09:38:23.753Z,31.82
2018-02-10T09:39:23.747Z,34.10
2018-02-10T09:40:23.741Z,33.43
2018-02-10T09:41:23.727Z,31.82
2018-02-10T09:42:23.728Z,32.08
2018-02-10T09:43:23.702Z,32.42
2018-02-10T09:44:23.702Z,32.50
2018-02-10T09:45:23.690Z,30.01
2018-02-10T09:46:23.682Z,31.16
2018-02-10T09:47:23.684Z,32.01
2018-02-10T09:48:23.702Z,29.21
2018-02-10T09:49:23.659Z,29.20
2018-02-10T09:50:23.692Z,30.49
2018-02-10T09:51:23.663Z,29.95
2018-02-10T09:52:23.643Z,29.45
2018-02-10T09:53:23.617Z,28.48
2018-02-10T09:54:23.657Z,31.19
2018-02-10T09:55:23.612Z,30.07
2018-02-10T09:56:23.594Z,29.38
2018-02-10T09:57:23.632Z,29.69
2018-02-10T09:58:23.578Z,30.10
2018-02-10T09:59:23.590Z,29.98
2018-02-10T10:00:23.565Z,28.60
2018-02-10T10:01:23.553Z,28.81
2018-02-10T10:02:23.542Z,28.96
2018-02-10T10:03:23.560Z,29.88
2018-02-10T10:04:23.574Z,28.24
2018-02-10T10:05:23.534Z,29.99
2018-02-10T10:06:23.507Z,29.28
2018-02-10T10:07:23.508Z,27.90
2018-02-10T10:08:23.511Z,31.06
2018-02-10T10:09:23.495Z,31.21
2018-02-10T10:10:23.493Z,28.98
2018-02-10T10:11:23.506Z,30.81
2018-02-10T10:12:23.474Z,31.08
2018-02-10T10:13:23.467Z,31.42
2018-02-10T10:14:23.466Z,32.11
2018-02-10T10:15:23.446Z,31.43
2018-02-10T10:16:23.440Z,29.76
2018-02-10T10:17:23.446Z,29.55
2018-02-10T10:18:23.446Z,30.90
2018-02-10T10:19:23.395Z,32.24
2018-02-10T10:20:23.402Z,30.18
2018-02-10T10:21:23.388Z,28.76
2018-02-10T10:22:23.420Z,31.29
2018-02-10T10:23:23.370Z,28.59
2018-02-10T10:24:23.407Z,28.74
2018-02-10T10:25:23.352Z,27.96
2018-02-10T10:26:23.386Z,27.70
2018-02-10T10:27:23.339Z,27.49
2018-02-10T10:28:23.332Z,28.60
2018-02-10T10:29:23.330Z,27.50
2018-02-10T10:30:23.330Z,27.60
2018-02-10T10:31:23.328Z,27.15
2018-02-10T10:32:23.301Z,25.92
2018-02-10T10:33:23.296Z,24.52
2018-02-10T10:34:23.281Z,26.92
2018-02-10T10:35:23.274Z,23.44
2018-02-10T10:36:23.274Z,22.96
2018-02-10T10:37:23.303Z,24.36
2018-02-10T10:38:23.293Z,21.39
2018-02-10T10:39:23.285Z,19.94
2018-02-10T10:40:23.240Z,20.86
2018-02-10T10:41:23.242Z,20.91
2018-02-10T10:42:23.251Z,20.43
2018-02-10T10:43:23.226Z,19.58
2018-02-10T10:44:23.209Z,20.00
2018-02-10T10:45:23.223Z,19.27
2018-02-10T10:46:23.197Z,18.52
2018-02-10T10:47:23.200Z,19.23
2018-02-10T10:48:23.177Z,17.50
2018-02-10T10:49:23.174Z,17.34
2018-02-10T10:50:23.198Z,15.68
2018-02-10T10:51:23.202Z,14.91
2018-02-10T10:52:23.156Z,15.37
2018-02-10T10:53:23.199Z,15.89
2018-02-10T10:54:23.134Z,16.30
2018-02-10T10:55:23.144Z,17.58
2018-02-10T10:56:23.172Z,16.61
2018-02-10T10:57:23.179Z,16.58
2018-02-10T10:58:23.138Z,15.86
2018-02-10T10:59:23.119Z,14.83
2018-02-10T11:00:23.141Z,13.16
2018-02-10T11:01:23.124Z,14.07
2018-02-10T11:02:23.082Z,14.44
2018-02-10T11:03:23.101Z,14.87
2018-02-10T11:04:23.083Z,15.53
2018-02-10T11:05:23.087Z,14.98
2018-02-10T11:06:23.122Z,15.48
2018-02-10T11:07:23.060Z,16.62
2018-02-10T11:08:23.044Z,15.50
2018-02-10T11:09:23.052Z,15.35
2018-02-10T11:10:23.072Z,15.48
2018-02-10T11:11:23.016Z,14.37
2018-02-10T11:12:23.032Z,11.36
2018-02-10T11:13:23.018Z,13.92
2018-02-10T11:14:23.034Z,13.20
2018-02-10T11:15:22.995Z,12.60
2018-02-10T11:16:23.014Z,12.00
2018-02-10T11:17:23.027Z,11.67
2018-02-10T11:18:22.986Z,13.12
2018-02-10T11:19:22.980Z,11.33
2018-02-10T11:20:22.988Z,10.19
2018-02-10T11:21:22.963Z,10.64
2018-02-10T11:22:22.951Z,11.56
2018-02-10T11:23:22.956Z,11.95
2018-02-10T11:24:22.962Z,11.32
2018-02-10T11:25:22.966Z,13.08
2018-02-10T11:26:22.985Z,11.24
2018-02-10T11:27:22.958Z,9.86
2018-02-10T11:28:22.980Z,10.03
2018-02-10T11:29:22.923Z,9.31
2018-02-10T11:30:22.904Z,9.86
2018-02-10T11:31:22.884Z,10.98
2018-02-10T11:32:22.891Z,10.10
2018-02-10T11:33:22.891Z,10.37
2018-02-10T11:34:22.861Z,10.94
2018-02-10T11:35:22.892Z,12.45
2018-02-10T11:36:22.857Z,10.84
2018-02-10T11:37:22.861Z,9.88
2018-02-10T11:38:22.848Z,10.35
2018-02-10T11:39:22.827Z,11.31
2018-02-10T11:40:22.833Z,9.92
2018-02-10T11:41:22.819Z,10.00
2018-02-10T11:42:22.888Z,9.69
2018-02-10T11:43:22.830Z,8.99
2018-02-10T11:44:22.810Z,9.08
2018-02-10T11:45:22.814Z,9.66
2018-02-10T11:46:22.782Z,10.51
2018-02-10T11:47:22.805Z,10.41
2018-02-10T11:48:22.788Z,9.84
2018-02-10T11:49:22.776Z,10.54
2018-02-10T11:50:22.751Z,8.66
2018-02-10T11:51:22.742Z,8.96
2018-02-10T11:52:22.741Z,9.30
2018-02-10T11:53:22.742Z,9.16
2018-02-10T11:54:22.721Z,8.98
2018-02-10T11:55:22.707Z,9.28
2018-02-10T11:56:22.719Z,10.16
2018-02-10T11:57:22.705Z,10.43
2018-02-10T11:58:22.707Z,9.88
2018-02-10T11:59:22.697Z,10.27
2018-02-10T12:00:22.717Z,10.16
2018-02-10T12:01:22.690Z,11.86
2018-02-10T12:02:22.674Z,11.08
2018-02-10T12:03:22.663Z,10.01
2018-02-10T12:04:22.651Z,10.22
2018-02-10T12:05:22.645Z,9.50
2018-02-10T12:06:22.647Z,10.26
2018-02-10T12:07:22.630Z,9.82
2018-02-10T12:08:22.630Z,9.80
2018-02-10T12:09:22.628Z,11.46
2018-02-10T12:10:22.622Z,10.44
2018-02-10T12:11:22.592Z,11.17
2018-02-10T12:12:22.594Z,10.03
2018-02-10T12:13:22.601Z,10.34
2018-02-10T12:14:22.601Z,10.57
2018-02-10T12:15:22.599Z,11.64
2018-02-10T12:16:22.584Z,11.77
2018-02-10T12:17:22.566Z,11.09
2018-02-10T12:18:22.547Z,10.06
2018-02-10T12:19:22.562Z,10.22
2018-02-10T12:20:22.546Z,11.13
2018-02-10T12:21:22.551Z,10.47
2018-02-10T12:22:22.521Z,10.74
2018-02-10T12:23:22.510Z,10.68
2018-02-10T12:24:22.516Z,11.51
2018-02-10T12:25:22.527Z,12.45
2018-02-10T12:26:22.524Z,10.85
2018-02-10T12:27:22.505Z,10.99
2018-02-10T12:28:22.519Z,12.80
2018-02-10T12:29:22.502Z,11.24
2018-02-10T12:30:22.466Z,11.39
2018-02-10T12:31:22.460Z,11.21
2018-02-10T12:32:22.465Z,10.32
2018-02-10T12:33:22.493Z,10.20
2018-02-10T12:34:22.458Z,11.35
2018-02-10T12:35:22.444Z,11.84
2018-02-10T12:36:22.412Z,10.69
2018-02-10T12:37:22.421Z,10.77
2018-02-10T12:38:22.460Z,12.74
2018-02-10T12:39:22.407Z,10.84
2018-02-10T12:40:23.909Z,12.22
2018-02-10T12:41:22.424Z,12.32
2018-02-10T12:42:23.989Z,10.86
2018-02-10T12:43:23.897Z,11.41
2018-02-10T12:44:22.454Z,14.06
2018-02-10T12:45:25.927Z,12.23
2018-02-10T12:46:23.909Z,10.83
2018-02-10T12:47:22.335Z,10.43
2018-02-10T12:48:22.336Z,10.13
2018-02-10T12:49:22.378Z,9.59
2018-02-10T12:50:22.317Z,9.24
2018-02-10T12:51:22.317Z,8.86
2018-02-10T12:52:22.312Z,10.31
2018-02-10T12:53:22.286Z,9.82